Time;durP1;ratioP1;P1;durP2;ratioP2;P2;SDS_P1;SDS_P2;PMS_P1;PMS_P2;Temp;Humidity;BMP_temperature;BMP_pressure;BME280_temperature;BME280_humidity;BME280_pressure;Samples;Min_cycle;Max_cycle;Signal;HPM_P1;HPM_P2
2023/04/12 06:22:48;;;;;;;;;4.75;3.00;;;;;;;;4851185;27;51215;-70
2023/04/12 06:25:15;;;;;;;;;7.00;3.00;;;;;;;;5061108;27;50070;-70
2023/04/12 06:27:40;;;;;;;;;2.25;1.00;;;;;;;;5089835;27;51130;-68
2023/04/12 06:30:06;;;;;;;;;3.00;3.00;;;;;;;;5090207;27;50037;-69
2023/04/12 06:32:31;;;;;;;;;1.00;1.00;;;;;;;;5090867;27;49666;-69
2023/04/12 06:34:56;;;;;;;;;3.00;3.00;;;;;;;;5090609;27;50682;-69
2023/04/12 06:37:21;;;;;;;;;3.00;2.00;;;;;;;;5090483;27;50008;-68
2023/04/12 06:39:46;;;;;;;;;4.75;4.75;;;;;;;;5090896;27;49713;-71
2023/04/12 06:42:12;;;;;;;;;4.00;3.50;;;;;;;;5090654;27;50143;-71
2023/04/12 06:44:37;;;;;;;;;3.75;3.75;;;;;;;;5090597;27;50564;-72
2023/04/12 06:47:02;;;;;;;;;3.00;3.00;;;;;;;;5090702;27;49857;-71
2023/04/12 06:49:28;;;;;;;;;1.75;1.75;;;;;;;;5088274;27;49996;-71
2023/04/12 06:51:53;;;;;;;;;1.00;1.00;;;;;;;;5070268;27;49723;-72
2023/04/12 06:54:18;;;;;;;;;1.25;1.25;;;;;;;;5090331;27;51894;-72
2023/04/12 06:56:43;;;;;;;;;0.00;0.00;;;;;;;;5090820;27;50082;-72
2023/04/12 06:59:09;;;;;;;;;1.00;1.00;;;;;;;;5071050;27;50270;-71
2023/04/12 07:01:34;;;;;;;;;4.00;0.25;;;;;;;;5070310;27;49765;-71
2023/04/12 07:03:59;;;;;;;;;4.50;3.00;;;;;;;;5088073;27;50880;-71
2023/04/12 07:06:26;;;;;;;;;2.00;2.00;;;;;;;;5090297;27;49720;-71
2023/04/12 07:08:51;;;;;;;;;3.25;3.25;;;;;;;;5089234;27;49969;-71
2023/04/12 07:11:16;;;;;;;;;2.25;1.75;;;;;;;;5085754;27;49689;-70
2023/04/12 07:13:41;;;;;;;;;1.25;1.25;;;;;;;;5089529;27;50030;-71
2023/04/12 07:16:06;;;;;;;;;1.00;1.00;;;;;;;;5090185;27;49729;-72
2023/04/12 07:18:32;;;;;;;;;1.00;1.00;;;;;;;;5090049;27;50146;-72
2023/04/12 07:20:57;;;;;;;;;3.75;2.00;;;;;;;;5088111;27;50139;-71
2023/04/12 07:23:24;;;;;;;;;2.50;0.00;;;;;;;;5068585;28;50805;-71
2023/04/12 07:25:49;;;;;;;;;2.00;2.00;;;;;;;;5069837;28;49803;-72
2023/04/12 07:28:14;;;;;;;;;1.75;0.25;;;;;;;;5068184;28;50125;-70
2023/04/12 07:30:40;;;;;;;;;3.00;2.50;;;;;;;;5049642;28;50021;-71
2023/04/12 07:33:05;;;;;;;;;2.50;1.00;;;;;;;;5069280;28;50135;-72
2023/04/12 07:35:32;;;;;;;;;2.25;2.00;;;;;;;;5069663;28;49864;-70
2023/04/12 07:37:57;;;;;;;;;2.50;2.25;;;;;;;;5066087;28;49899;-71
2023/04/12 07:40:22;;;;;;;;;1.25;1.00;;;;;;;;5055088;28;49973;-71
2023/04/12 07:42:48;;;;;;;;;3.50;1.25;;;;;;;;5049582;28;51234;-71
2023/04/12 07:45:13;;;;;;;;;1.50;1.00;;;;;;;;5059416;28;49810;-71
2023/04/12 07:47:38;;;;;;;;;2.25;2.25;;;;;;;;5068502;28;49998;-72
2023/04/12 07:50:04;;;;;;;;;2.00;1.00;;;;;;;;5069078;28;50093;-71
2023/04/12 07:52:29;;;;;;;;;0.25;0.25;;;;;;;;5068478;28;50572;-70
2023/04/12 07:54:54;;;;;;;;;1.25;1.25;;;;;;;;5065309;28;50841;-71
2023/04/12 07:57:20;;;;;;;;;2.00;1.50;;;;;;;;5049990;28;49889;-71
2023/04/12 07:59:45;;;;;;;;;0.75;0.75;;;;;;;;5069283;28;49803;-70
2023/04/12 08:02:10;;;;;;;;;1.00;0.75;;;;;;;;5048093;27;52683;-75
2023/04/12 08:04:35;;;;;;;;;3.75;1.00;;;;;;;;5067682;27;49856;-75
2023/04/12 08:07:01;;;;;;;;;3.00;1.75;;;;;;;;5067394;27;50078;-75
2023/04/12 08:09:26;;;;;;;;;2.00;1.00;;;;;;;;5071829;27;50300;-74
2023/04/12 08:11:52;;;;;;;;;0.75;0.75;;;;;;;;5066905;27;50838;-77
2023/04/12 08:14:51;;;;;;;;;1.00;1.00;;;;;;;;5048529;27;49875;-75
2023/04/12 08:17:16;;;;;;;;;3.00;2.00;;;;;;;;5057278;27;50572;-77
2023/04/12 08:19:41;;;;;;;;;0.50;0.50;;;;;;;;5071086;27;50531;-77
2023/04/12 08:22:07;;;;;;;;;0.75;0.75;;;;;;;;5080078;27;50350;-77
2023/04/12 08:24:32;;;;;;;;;0.00;0.00;;;;;;;;5090428;27;49874;-76
2023/04/12 08:26:57;;;;;;;;;0.50;0.00;;;;;;;;5090032;27;50607;-77
2023/04/12 08:29:22;;;;;;;;;0.00;0.00;;;;;;;;5091232;27;50648;-77
2023/04/12 08:31:47;;;;;;;;;2.00;2.00;;;;;;;;5086585;27;51957;-77
2023/04/12 08:34:13;;;;;;;;;1.00;0.00;;;;;;;;5072871;27;50140;-76
2023/04/12 08:36:38;;;;;;;;;0.00;0.00;;;;;;;;5092337;27;49869;-76
2023/04/12 08:39:03;;;;;;;;;0.00;0.00;;;;;;;;5089235;27;49805;-76
2023/04/12 08:41:28;;;;;;;;;0.00;0.00;;;;;;;;5091368;27;49784;-77
2023/04/12 08:43:56;;;;;;;;;0.00;0.00;;;;;;;;5091725;27;50134;-76
2023/04/12 08:46:22;;;;;;;;;0.00;0.00;;;;;;;;5083840;27;49859;-77
2023/04/12 08:48:48;;;;;;;;;6.00;3.00;;;;;;;;5088756;27;50191;-77
2023/04/12 08:51:15;;;;;;;;;0.75;0.75;;;;;;;;5088705;27;51334;-77
2023/04/12 08:53:40;;;;;;;;;0.00;0.00;;;;;;;;5088727;27;50136;-74
2023/04/12 08:56:08;;;;;;;;;1.00;0.50;;;;;;;;5085580;27;50071;-77
2023/04/12 08:58:33;;;;;;;;;0.00;0.00;;;;;;;;5089700;27;50080;-75
2023/04/12 09:00:59;;;;;;;;;1.75;0.75;;;;;;;;5086376;27;50220;-77
2023/04/12 09:03:25;;;;;;;;;0.00;0.00;;;;;;;;5068797;27;49800;-74
2023/04/12 09:05:50;;;;;;;;;1.00;1.00;;;;;;;;5086823;27;50087;-74
2023/04/12 09:08:16;;;;;;;;;3.00;1.00;;;;;;;;5091617;27;50029;-76
2023/04/12 09:10:41;;;;;;;;;1.25;1.00;;;;;;;;5086027;27;50589;-77
2023/04/12 09:13:07;;;;;;;;;0.00;0.00;;;;;;;;5090757;27;50228;-77
2023/04/12 09:15:33;;;;;;;;;0.25;0.00;;;;;;;;5090222;27;49706;-77
2023/04/12 09:18:02;;;;;;;;;0.50;0.00;;;;;;;;5094000;27;49978;-77
2023/04/12 09:20:28;;;;;;;;;2.00;0.50;;;;;;;;5091648;27;49959;-76
2023/04/12 09:22:54;;;;;;;;;0.00;0.00;;;;;;;;5095072;27;50196;-77
2023/04/12 09:25:34;;;;;;;;;0.25;0.25;;;;;;;;5091909;27;50040;-75
2023/04/12 09:27:59;;;;;;;;;1.50;0.00;;;;;;;;5093323;27;50270;-75
2023/04/12 09:30:24;;;;;;;;;0.00;0.00;;;;;;;;5093833;27;51046;-74
2023/04/12 09:32:52;;;;;;;;;0.00;0.00;;;;;;;;5092851;27;50067;-74
2023/04/12 09:35:17;;;;;;;;;1.00;0.00;;;;;;;;5087237;27;49855;-75
2023/04/12 09:37:42;;;;;;;;;0.00;0.00;;;;;;;;5082573;27;50155;-75
2023/04/12 09:40:08;;;;;;;;;1.00;0.00;;;;;;;;5083625;27;50655;-77
2023/04/12 09:42:34;;;;;;;;;0.25;0.25;;;;;;;;5087585;27;50147;-74
2023/04/12 09:45:01;;;;;;;;;0.00;0.00;;;;;;;;5087734;27;49898;-75
2023/04/12 09:47:37;;;;;;;;;0.00;0.00;;;;;;;;5088723;27;50132;-75
2023/04/12 09:50:04;;;;;;;;;0.25;0.25;;;;;;;;5081871;27;49947;-75
2023/04/12 09:52:34;;;;;;;;;1.00;0.00;;;;;;;;5087524;27;49722;-75
2023/04/12 09:54:59;;;;;;;;;1.25;1.00;;;;;;;;5090391;27;49883;-76
2023/04/12 09:57:25;;;;;;;;;0.00;0.00;;;;;;;;5085831;27;50064;-79
2023/04/12 09:59:52;;;;;;;;;0.00;0.00;;;;;;;;5090694;27;49951;-78
2023/04/12 10:02:18;;;;;;;;;0.00;0.00;;;;;;;;5091407;27;50036;-78
2023/04/12 10:04:44;;;;;;;;;0.00;0.00;;;;;;;;5091504;27;50246;-79
2023/04/12 10:07:10;;;;;;;;;0.00;0.00;;;;;;;;5091268;27;49718;-77
2023/04/12 10:09:39;;;;;;;;;0.25;0.25;;;;;;;;5091103;27;51062;-76
2023/04/12 10:12:05;;;;;;;;;0.00;0.00;;;;;;;;5090852;27;49636;-77
2023/04/12 10:14:30;;;;;;;;;1.25;1.25;;;;;;;;5090847;27;49783;-78
2023/04/12 10:16:56;;;;;;;;;1.00;0.00;;;;;;;;5081860;27;50077;-76
2023/04/12 10:19:24;;;;;;;;;0.00;0.00;;;;;;;;5068940;27;51604;-76
2023/04/12 10:21:49;;;;;;;;;0.50;0.50;;;;;;;;5083589;27;49787;-76
2023/04/12 10:24:16;;;;;;;;;0.00;0.00;;;;;;;;5072272;27;50270;-76
2023/04/12 10:26:42;;;;;;;;;0.00;0.00;;;;;;;;5091030;27;50100;-77
2023/04/12 10:29:26;;;;;;;;;0.00;0.00;;;;;;;;5089659;27;50507;-77
2023/04/12 10:31:52;;;;;;;;;1.00;1.00;;;;;;;;5090050;27;49711;-74
2023/04/12 10:34:22;;;;;;;;;1.00;1.00;;;;;;;;5090662;27;50086;-74
2023/04/12 10:36:51;;;;;;;;;0.75;0.75;;;;;;;;5090301;27;49647;-75
2023/04/12 10:39:17;;;;;;;;;0.00;0.00;;;;;;;;5090510;27;49979;-77
2023/04/12 10:42:01;;;;;;;;;0.00;0.00;;;;;;;;5090538;27;50224;-77
2023/04/12 10:44:26;;;;;;;;;1.00;1.00;;;;;;;;5090576;27;50061;-77
2023/04/12 10:46:51;;;;;;;;;1.25;1.00;;;;;;;;5090904;27;50021;-78
2023/04/12 10:49:17;;;;;;;;;1.00;1.00;;;;;;;;5071838;27;49807;-75
2023/04/12 10:52:01;;;;;;;;;0.25;0.25;;;;;;;;5083586;27;50037;-75
2023/04/12 10:54:27;;;;;;;;;1.00;1.00;;;;;;;;5082159;27;49860;-75
2023/04/12 10:56:52;;;;;;;;;2.00;1.50;;;;;;;;5083644;27;50390;-75
2023/04/12 10:59:18;;;;;;;;;0.50;0.00;;;;;;;;5090096;27;50114;-75
2023/04/12 11:02:01;;;;;;;;;0.25;0.25;;;;;;;;5083432;27;49700;-76
2023/04/12 11:04:26;;;;;;;;;0.00;0.00;;;;;;;;5085496;27;49767;-75
2023/04/12 11:06:52;;;;;;;;;1.25;0.00;;;;;;;;5090187;27;50251;-74
2023/04/12 11:09:17;;;;;;;;;1.75;1.00;;;;;;;;5085330;27;49882;-74
2023/04/12 11:11:42;;;;;;;;;1.00;1.00;;;;;;;;5082424;27;50145;-74
2023/04/12 11:14:11;;;;;;;;;0.00;0.00;;;;;;;;5085053;27;49944;-73
2023/04/12 11:16:55;;;;;;;;;4.00;3.00;;;;;;;;5090288;27;50085;-75
2023/04/12 11:19:21;;;;;;;;;2.00;1.00;;;;;;;;5083715;27;49805;-73
2023/04/12 11:21:47;;;;;;;;;1.00;1.00;;;;;;;;5087412;27;50087;-73
2023/04/12 11:24:12;;;;;;;;;1.00;0.50;;;;;;;;5081692;27;49891;-80
2023/04/12 11:26:38;;;;;;;;;1.00;1.00;;;;;;;;5069134;27;49956;-71
2023/04/12 11:29:07;;;;;;;;;1.00;1.00;;;;;;;;5083870;27;51997;-72
2023/04/12 11:31:32;;;;;;;;;1.00;1.00;;;;;;;;5087651;27;49682;-72
2023/04/12 11:33:58;;;;;;;;;2.00;1.00;;;;;;;;5095136;27;49774;-74
2023/04/12 11:36:25;;;;;;;;;3.00;1.00;;;;;;;;5086374;27;50008;-75
2023/04/12 11:38:50;;;;;;;;;1.00;1.00;;;;;;;;5089995;27;49832;-75
2023/04/12 11:41:17;;;;;;;;;0.00;0.00;;;;;;;;5089817;27;49745;-74
2023/04/12 11:43:43;;;;;;;;;0.50;0.50;;;;;;;;5090159;27;49778;-73
2023/04/12 11:46:09;;;;;;;;;0.00;0.00;;;;;;;;5084167;27;50050;-76
2023/04/12 11:48:37;;;;;;;;;2.50;0.00;;;;;;;;5089996;27;50589;-77
2023/04/12 11:51:17;;;;;;;;;0.00;0.00;;;;;;;;5089888;27;50034;-75
2023/04/12 11:53:44;;;;;;;;;0.50;0.50;;;;;;;;5058802;27;49784;-80
2023/04/12 11:56:09;;;;;;;;;1.00;1.00;;;;;;;;5087070;27;50086;-82
2023/04/12 11:58:34;;;;;;;;;2.00;0.00;;;;;;;;5085824;27;50776;-84
2023/04/12 12:01:00;;;;;;;;;2.00;1.75;;;;;;;;5086185;27;49873;-83
2023/04/12 12:03:25;;;;;;;;;0.00;0.00;;;;;;;;5079153;27;49589;-82
2023/04/12 12:05:51;;;;;;;;;0.00;0.00;;;;;;;;5084644;27;49969;-83
2023/04/12 12:08:17;;;;;;;;;0.00;0.00;;;;;;;;5070434;27;51305;-81
2023/04/12 12:10:42;;;;;;;;;0.50;0.50;;;;;;;;5082991;27;49811;-82
2023/04/12 12:13:11;;;;;;;;;0.00;0.00;;;;;;;;5085670;27;49790;-84
2023/04/12 12:15:36;;;;;;;;;0.00;0.00;;;;;;;;5086584;27;49757;-82
2023/04/12 12:18:01;;;;;;;;;0.25;0.25;;;;;;;;5086535;27;50810;-80
2023/04/12 12:20:27;;;;;;;;;1.75;0.00;;;;;;;;5080842;27;49638;-73
2023/04/12 12:22:52;;;;;;;;;1.50;0.25;;;;;;;;5079449;27;49659;-80
2023/04/12 12:25:18;;;;;;;;;0.00;0.00;;;;;;;;5064526;27;51122;-83
2023/04/12 12:27:47;;;;;;;;;1.00;0.00;;;;;;;;5086915;27;50620;-79
2023/04/12 12:30:15;;;;;;;;;0.50;0.50;;;;;;;;5087944;27;50005;-82
2023/04/12 12:32:40;;;;;;;;;0.00;0.00;;;;;;;;5089621;27;50169;-81
2023/04/12 12:35:09;;;;;;;;;0.00;0.00;;;;;;;;5081005;27;50217;-83
2023/04/12 12:37:35;;;;;;;;;0.00;0.00;;;;;;;;5089041;27;50723;-82
2023/04/12 12:40:12;;;;;;;;;0.00;0.00;;;;;;;;5087319;27;49784;-82
2023/04/12 12:42:43;;;;;;;;;0.50;0.00;;;;;;;;5089776;27;49732;-79
2023/04/12 12:45:08;;;;;;;;;0.00;0.00;;;;;;;;5067531;27;49710;-82
2023/04/12 12:47:43;;;;;;;;;2.00;0.00;;;;;;;;5074536;27;50893;-80
2023/04/12 12:50:12;;;;;;;;;0.00;0.00;;;;;;;;5089320;27;50023;-78
2023/04/12 12:52:37;;;;;;;;;0.00;0.00;;;;;;;;5074505;27;49807;-78
2023/04/12 12:55:02;;;;;;;;;0.00;0.00;;;;;;;;5086441;27;50110;-77
2023/04/12 12:57:27;;;;;;;;;0.00;0.00;;;;;;;;5085379;27;50277;-77
2023/04/12 12:59:52;;;;;;;;;0.00;0.00;;;;;;;;5089061;27;50190;-77
2023/04/12 13:02:18;;;;;;;;;0.00;0.00;;;;;;;;5089313;27;49999;-79
2023/04/12 13:04:43;;;;;;;;;0.00;0.00;;;;;;;;5089302;27;50131;-79
2023/04/12 13:07:08;;;;;;;;;0.00;0.00;;;;;;;;5085383;27;50369;-77
2023/04/12 13:09:34;;;;;;;;;0.00;0.00;;;;;;;;5086249;27;50062;-79
2023/04/12 13:12:00;;;;;;;;;0.00;0.00;;;;;;;;5085901;27;49705;-80
2023/04/12 13:14:26;;;;;;;;;2.00;0.00;;;;;;;;5081966;27;50054;-79
2023/04/12 13:16:51;;;;;;;;;0.00;0.00;;;;;;;;5088462;27;50104;-81
2023/04/12 13:19:16;;;;;;;;;0.00;0.00;;;;;;;;5088732;27;49867;-81
2023/04/12 13:21:41;;;;;;;;;0.25;0.00;;;;;;;;5088589;27;49765;-80
2023/04/12 13:24:07;;;;;;;;;1.00;0.00;;;;;;;;5070430;27;49790;-80
2023/04/12 13:26:32;;;;;;;;;0.00;0.00;;;;;;;;5088945;27;50068;-83
2023/04/12 13:28:57;;;;;;;;;0.00;0.00;;;;;;;;5084093;27;50027;-84
2023/04/12 13:31:22;;;;;;;;;0.00;0.00;;;;;;;;5089759;27;49856;-81
2023/04/12 13:33:48;;;;;;;;;0.00;0.00;;;;;;;;5083044;27;50110;-82
2023/04/12 13:36:13;;;;;;;;;0.00;0.00;;;;;;;;5083138;27;51004;-82
2023/04/12 13:38:38;;;;;;;;;0.00;0.00;;;;;;;;5078667;27;49921;-81
2023/04/12 13:41:04;;;;;;;;;0.00;0.00;;;;;;;;5075850;27;50079;-84
2023/04/12 13:43:29;;;;;;;;;1.00;1.00;;;;;;;;5089793;27;49872;-83
2023/04/12 13:45:54;;;;;;;;;0.00;0.00;;;;;;;;5088429;27;50820;-79
2023/04/12 13:48:20;;;;;;;;;1.00;0.00;;;;;;;;5087370;27;49740;-78
2023/04/12 13:50:45;;;;;;;;;0.50;0.50;;;;;;;;5086976;27;49810;-79
2023/04/12 13:53:10;;;;;;;;;0.25;0.25;;;;;;;;5087134;27;50010;-76
2023/04/12 13:55:35;;;;;;;;;1.50;0.00;;;;;;;;5087077;27;50419;-81
2023/04/12 13:58:00;;;;;;;;;1.00;0.00;;;;;;;;5086495;27;49753;-81
2023/04/12 14:00:26;;;;;;;;;1.50;1.00;;;;;;;;5085902;27;49699;-79
2023/04/12 14:02:51;;;;;;;;;2.00;0.25;;;;;;;;5087176;27;49939;-80
2023/04/12 14:05:16;;;;;;;;;0.00;0.00;;;;;;;;5090915;27;50393;-79
2023/04/12 14:07:41;;;;;;;;;0.00;0.00;;;;;;;;5091214;27;49989;-77
2023/04/12 14:10:07;;;;;;;;;0.00;0.00;;;;;;;;5090954;27;50104;-77
2023/04/12 14:12:32;;;;;;;;;0.00;0.00;;;;;;;;5072455;27;50685;-75
2023/04/12 14:14:57;;;;;;;;;0.00;0.00;;;;;;;;5091495;27;50372;-79
2023/04/12 14:17:22;;;;;;;;;0.00;0.00;;;;;;;;5091306;27;49753;-83
2023/04/12 14:19:48;;;;;;;;;0.00;0.00;;;;;;;;5091649;27;49840;-79
2023/04/12 14:22:13;;;;;;;;;0.00;0.00;;;;;;;;5072905;27;49800;-79
2023/04/12 14:24:38;;;;;;;;;1.25;0.00;;;;;;;;5068996;28;51570;-76
2023/04/12 14:27:04;;;;;;;;;0.00;0.00;;;;;;;;5088371;27;50227;-74
2023/04/12 14:29:29;;;;;;;;;0.00;0.00;;;;;;;;5090614;27;49720;-78
2023/04/12 14:31:54;;;;;;;;;0.00;0.00;;;;;;;;5091868;27;49639;-81
2023/04/12 14:34:19;;;;;;;;;0.75;0.00;;;;;;;;5091501;27;50995;-74
2023/04/12 14:36:45;;;;;;;;;0.00;0.00;;;;;;;;5091083;27;50069;-76
2023/04/12 14:39:10;;;;;;;;;0.00;0.00;;;;;;;;5091168;27;50078;-78
2023/04/12 14:41:36;;;;;;;;;0.00;0.00;;;;;;;;5090785;27;49735;-77
2023/04/12 14:44:01;;;;;;;;;0.50;0.00;;;;;;;;5090091;27;50849;-75
2023/04/12 14:46:27;;;;;;;;;0.00;0.00;;;;;;;;5090478;27;50064;-78
2023/04/12 14:48:52;;;;;;;;;0.25;0.25;;;;;;;;5090006;27;49840;-74
2023/04/12 14:51:18;;;;;;;;;0.25;0.00;;;;;;;;5081524;27;49980;-78
2023/04/12 14:53:43;;;;;;;;;3.00;0.50;;;;;;;;5084403;27;49930;-76
2023/04/12 14:56:15;;;;;;;;;0.00;0.00;;;;;;;;5079204;27;49921;-73
2023/04/12 14:58:40;;;;;;;;;0.00;0.00;;;;;;;;5080614;27;50239;-72
2023/04/12 15:01:09;;;;;;;;;0.00;0.00;;;;;;;;5082573;27;50149;-75
2023/04/12 15:03:34;;;;;;;;;0.00;0.00;;;;;;;;5081439;27;50694;-64
2023/04/12 15:05:59;;;;;;;;;0.00;0.00;;;;;;;;5079780;27;49852;-67
2023/04/12 15:08:25;;;;;;;;;0.00;0.00;;;;;;;;5089914;27;49948;-66
2023/04/12 15:10:50;;;;;;;;;0.75;0.75;;;;;;;;5089714;27;49788;-67
2023/04/12 15:13:15;;;;;;;;;1.00;1.00;;;;;;;;5090350;27;50743;-68
2023/04/12 15:15:40;;;;;;;;;1.50;1.00;;;;;;;;5089392;27;50195;-66
2023/04/12 15:18:05;;;;;;;;;2.25;0.00;;;;;;;;5089045;27;49603;-81
2023/04/12 15:20:31;;;;;;;;;3.00;3.00;;;;;;;;5090073;27;49782;-78
2023/04/12 15:22:56;;;;;;;;;1.00;0.00;;;;;;;;5090172;27;49915;-76
2023/04/12 15:25:21;;;;;;;;;0.00;0.00;;;;;;;;5088337;27;49783;-76
2023/04/12 15:27:47;;;;;;;;;0.00;0.00;;;;;;;;5090241;27;50194;-77
2023/04/12 15:30:14;;;;;;;;;0.00;0.00;;;;;;;;5090083;27;49845;-78
2023/04/12 15:32:40;;;;;;;;;0.00;0.00;;;;;;;;5083235;27;50166;-78
2023/04/12 15:35:06;;;;;;;;;0.00;0.00;;;;;;;;5083636;27;49893;-81
2023/04/12 15:37:33;;;;;;;;;0.00;0.00;;;;;;;;5080321;27;50182;-81
2023/04/12 15:39:58;;;;;;;;;0.00;0.00;;;;;;;;5089031;27;49782;-77
2023/04/12 15:42:23;;;;;;;;;0.50;0.00;;;;;;;;5082774;27;49912;-72
2023/04/12 15:44:48;;;;;;;;;0.00;0.00;;;;;;;;5056618;28;49821;-74
2023/04/12 15:47:14;;;;;;;;;0.00;0.00;;;;;;;;5081229;27;49713;-74
2023/04/12 15:49:39;;;;;;;;;0.00;0.00;;;;;;;;5084952;27;49734;-73
2023/04/12 15:52:05;;;;;;;;;1.00;0.00;;;;;;;;5087678;27;49993;-73
2023/04/12 15:54:30;;;;;;;;;0.00;0.00;;;;;;;;5087521;27;50302;-73
2023/04/12 15:56:55;;;;;;;;;0.00;0.00;;;;;;;;5070870;27;49816;-72
2023/04/12 15:59:21;;;;;;;;;0.50;0.00;;;;;;;;5089584;27;49637;-73
2023/04/12 16:01:47;;;;;;;;;0.00;0.00;;;;;;;;5087012;27;50754;-76
2023/04/12 16:04:12;;;;;;;;;0.00;0.00;;;;;;;;5088408;27;49866;-72
2023/04/12 16:06:38;;;;;;;;;0.00;0.00;;;;;;;;5082959;27;49751;-72
2023/04/12 16:09:03;;;;;;;;;0.00;0.00;;;;;;;;5088767;27;49985;-71
2023/04/12 16:11:29;;;;;;;;;0.00;0.00;;;;;;;;5084450;27;50484;-72
2023/04/12 16:13:54;;;;;;;;;0.00;0.00;;;;;;;;5079862;27;49699;-73
2023/04/12 16:16:21;;;;;;;;;0.00;0.00;;;;;;;;5087319;27;49697;-74
2023/04/12 16:18:46;;;;;;;;;0.00;0.00;;;;;;;;5067906;27;50129;-77
2023/04/12 16:21:15;;;;;;;;;0.50;0.25;;;;;;;;5063052;27;51187;-76
2023/04/12 16:23:41;;;;;;;;;0.00;0.00;;;;;;;;5083613;27;49807;-77
2023/04/12 16:26:08;;;;;;;;;0.00;0.00;;;;;;;;5077654;27;49884;-72
2023/04/12 16:28:36;;;;;;;;;0.00;0.00;;;;;;;;5083049;27;50151;-74
2023/04/12 16:31:01;;;;;;;;;0.00;0.00;;;;;;;;5083917;27;49952;-74
2023/04/12 16:33:26;;;;;;;;;0.00;0.00;;;;;;;;5083153;27;49856;-74
2023/04/12 16:35:52;;;;;;;;;0.00;0.00;;;;;;;;5087196;27;50101;-74
2023/04/12 16:38:17;;;;;;;;;1.00;0.25;;;;;;;;5086179;27;50101;-73
2023/04/12 16:40:42;;;;;;;;;0.75;0.00;;;;;;;;5089067;27;50248;-80
2023/04/12 16:43:07;;;;;;;;;0.00;0.00;;;;;;;;5080858;27;49988;-75
2023/04/12 16:45:33;;;;;;;;;0.00;0.00;;;;;;;;5081917;27;49793;-74
2023/04/12 16:47:58;;;;;;;;;0.00;0.00;;;;;;;;5082535;27;51736;-75
2023/04/12 16:50:24;;;;;;;;;0.75;0.75;;;;;;;;5088670;27;51624;-74
2023/04/12 16:52:50;;;;;;;;;0.00;0.00;;;;;;;;5080160;27;49867;-75
2023/04/12 16:55:15;;;;;;;;;0.00;0.00;;;;;;;;5085640;27;51155;-74
2023/04/12 16:57:41;;;;;;;;;0.00;0.00;;;;;;;;5077568;27;50118;-75
2023/04/12 17:00:21;;;;;;;;;0.00;0.00;;;;;;;;5075627;27;49992;-74
2023/04/12 17:02:49;;;;;;;;;0.50;0.00;;;;;;;;5081442;27;50152;-74
2023/04/12 17:05:16;;;;;;;;;0.00;0.00;;;;;;;;5084744;27;50076;-74
2023/04/12 17:07:48;;;;;;;;;0.75;0.75;;;;;;;;5090636;27;50129;-74
2023/04/12 17:10:17;;;;;;;;;0.00;0.00;;;;;;;;5080886;27;50936;-72
2023/04/12 17:12:43;;;;;;;;;3.00;2.50;;;;;;;;5077117;27;51006;-73
2023/04/12 17:15:08;;;;;;;;;9.25;8.00;;;;;;;;5088616;27;49835;-72
2023/04/12 17:17:33;;;;;;;;;5.00;3.00;;;;;;;;5091102;27;50093;-73
2023/04/12 17:19:58;;;;;;;;;5.50;3.75;;;;;;;;5088836;27;51485;-72
2023/04/12 17:22:23;;;;;;;;;5.50;4.00;;;;;;;;5086501;27;49845;-72
2023/04/12 17:24:49;;;;;;;;;6.00;2.50;;;;;;;;5084890;27;50394;-75
2023/04/12 17:27:14;;;;;;;;;5.50;2.50;;;;;;;;5084431;27;49994;-74
2023/04/12 17:29:39;;;;;;;;;3.75;3.75;;;;;;;;5080035;27;50525;-72
2023/04/12 17:32:05;;;;;;;;;4.50;4.50;;;;;;;;5081820;27;50256;-71
2023/04/12 17:34:31;;;;;;;;;1.00;1.00;;;;;;;;5083013;27;49774;-72
2023/04/12 17:36:56;;;;;;;;;2.00;2.00;;;;;;;;5087990;27;49698;-73
2023/04/12 17:39:21;;;;;;;;;0.00;0.00;;;;;;;;5088727;27;51129;-71
2023/04/12 17:41:46;;;;;;;;;3.00;3.00;;;;;;;;5080716;27;50142;-75
2023/04/12 17:44:11;;;;;;;;;0.25;0.25;;;;;;;;5088098;27;49658;-74
2023/04/12 17:46:37;;;;;;;;;0.00;0.00;;;;;;;;5090978;27;50482;-68
2023/04/12 17:49:04;;;;;;;;;0.75;0.75;;;;;;;;5092483;27;50794;-73
2023/04/12 17:51:31;;;;;;;;;1.00;1.00;;;;;;;;5088354;27;49828;-74
2023/04/12 17:53:57;;;;;;;;;0.00;0.00;;;;;;;;5093344;27;49944;-73
2023/04/12 17:56:23;;;;;;;;;2.50;1.50;;;;;;;;5091771;27;49649;-74
2023/04/12 17:58:48;;;;;;;;;3.50;2.00;;;;;;;;5090276;27;51853;-73
2023/04/12 18:01:14;;;;;;;;;1.00;1.00;;;;;;;;5091773;27;50097;-75
2023/04/12 18:03:39;;;;;;;;;0.00;0.00;;;;;;;;5096910;22;50046;-70
2023/04/12 18:06:05;;;;;;;;;0.00;0.00;;;;;;;;5088893;27;50027;-68
2023/04/12 18:08:30;;;;;;;;;0.50;0.50;;;;;;;;5091440;27;50395;-70
2023/04/12 18:10:56;;;;;;;;;0.00;0.00;;;;;;;;5090850;27;49792;-67
2023/04/12 18:13:22;;;;;;;;;1.00;0.00;;;;;;;;5091581;27;49931;-67
2023/04/12 18:15:47;;;;;;;;;0.00;0.00;;;;;;;;5091123;27;49734;-67
2023/04/12 18:18:12;;;;;;;;;3.00;1.75;;;;;;;;5091292;27;49870;-67
2023/04/12 18:20:38;;;;;;;;;0.00;0.00;;;;;;;;5090879;27;49840;-68
2023/04/12 18:23:03;;;;;;;;;0.00;0.00;;;;;;;;5091043;27;49636;-68
2023/04/12 18:25:28;;;;;;;;;0.00;0.00;;;;;;;;5072886;27;50033;-67
2023/04/12 18:27:54;;;;;;;;;1.00;1.00;;;;;;;;5090811;27;50535;-67
2023/04/12 18:30:19;;;;;;;;;0.75;0.25;;;;;;;;5097170;27;49788;-67
2023/04/12 18:32:46;;;;;;;;;1.25;0.25;;;;;;;;5093351;27;50031;-68
2023/04/12 18:35:11;;;;;;;;;0.50;0.50;;;;;;;;5072833;27;49724;-70
2023/04/12 18:37:36;;;;;;;;;2.75;2.75;;;;;;;;5091021;27;50529;-70
2023/04/12 18:40:05;;;;;;;;;1.75;0.75;;;;;;;;5090794;27;49707;-68
2023/04/12 18:42:31;;;;;;;;;2.00;1.00;;;;;;;;5090718;27;49862;-68
2023/04/12 18:44:57;;;;;;;;;4.50;2.50;;;;;;;;5090633;27;49580;-68
2023/04/12 18:47:22;;;;;;;;;1.00;1.00;;;;;;;;5100271;27;49789;-70
2023/04/12 18:49:48;;;;;;;;;2.00;2.00;;;;;;;;5082895;27;50007;-68
2023/04/12 18:52:13;;;;;;;;;2.00;1.50;;;;;;;;5081043;27;49672;-69
2023/04/12 18:54:38;;;;;;;;;1.00;1.00;;;;;;;;5092971;27;50106;-67
2023/04/12 18:57:03;;;;;;;;;3.00;1.75;;;;;;;;5092125;27;51122;-69
2023/04/12 18:59:29;;;;;;;;;2.00;1.00;;;;;;;;5088493;27;49781;-69
2023/04/12 19:01:54;;;;;;;;;0.75;0.75;;;;;;;;5062362;27;49676;-69
2023/04/12 19:04:20;;;;;;;;;3.50;1.75;;;;;;;;5091215;27;49783;-68
2023/04/12 19:06:46;;;;;;;;;1.00;1.00;;;;;;;;5089388;27;49974;-69
2023/04/12 19:09:11;;;;;;;;;0.50;0.50;;;;;;;;5090773;27;50017;-69
2023/04/12 19:11:36;;;;;;;;;2.00;2.00;;;;;;;;5091568;27;49807;-69
2023/04/12 19:14:02;;;;;;;;;1.00;0.00;;;;;;;;5071802;27;49930;-68
2023/04/12 19:16:27;;;;;;;;;1.00;1.00;;;;;;;;5086200;27;50553;-69
2023/04/12 19:18:54;;;;;;;;;0.50;0.50;;;;;;;;5073667;27;50256;-69
2023/04/12 19:21:19;;;;;;;;;3.00;1.00;;;;;;;;5091900;27;49671;-68
2023/04/12 19:23:44;;;;;;;;;2.75;2.50;;;;;;;;5090491;27;49948;-68
2023/04/12 19:26:10;;;;;;;;;0.75;0.75;;;;;;;;5095999;27;50478;-68
2023/04/12 19:28:36;;;;;;;;;1.00;1.00;;;;;;;;5090141;27;50072;-68
2023/04/12 19:31:06;;;;;;;;;0.00;0.00;;;;;;;;5090309;27;49748;-69
2023/04/12 19:33:31;;;;;;;;;0.00;0.00;;;;;;;;5096854;27;49970;-69
2023/04/12 19:35:57;;;;;;;;;0.00;0.00;;;;;;;;5089873;27;49799;-66
2023/04/12 19:38:23;;;;;;;;;0.00;0.00;;;;;;;;5093355;27;49761;-67
2023/04/12 19:40:49;;;;;;;;;0.00;0.00;;;;;;;;5088390;27;50104;-67
2023/04/12 19:43:17;;;;;;;;;0.00;0.00;;;;;;;;5090100;27;50106;-67
2023/04/12 19:45:43;;;;;;;;;1.00;1.00;;;;;;;;5064828;27;51342;-69
2023/04/12 19:48:08;;;;;;;;;0.00;0.00;;;;;;;;5068767;27;49824;-69
2023/04/12 19:50:35;;;;;;;;;0.00;0.00;;;;;;;;5066807;27;50341;-69
2023/04/12 19:53:00;;;;;;;;;0.25;0.25;;;;;;;;5085126;27;49969;-67
2023/04/12 19:55:25;;;;;;;;;0.00;0.00;;;;;;;;5081237;27;50112;-67
2023/04/12 19:57:51;;;;;;;;;1.00;0.00;;;;;;;;5080477;27;49970;-67
2023/04/12 20:00:21;;;;;;;;;0.00;0.00;;;;;;;;5053578;27;50212;-67
2023/04/12 20:02:51;;;;;;;;;1.50;1.50;;;;;;;;5063236;27;50774;-68
2023/04/12 20:05:16;;;;;;;;;0.00;0.00;;;;;;;;5070096;27;50610;-68
2023/04/12 20:07:45;;;;;;;;;0.00;0.00;;;;;;;;5067900;27;49746;-68
2023/04/12 20:10:11;;;;;;;;;0.00;0.00;;;;;;;;5085298;27;49807;-68
2023/04/12 20:12:37;;;;;;;;;0.50;0.50;;;;;;;;5054312;27;50001;-67
2023/04/12 20:15:03;;;;;;;;;0.00;0.00;;;;;;;;5085175;27;50070;-67
2023/04/12 20:17:28;;;;;;;;;0.00;0.00;;;;;;;;5088621;27;50237;-69
2023/04/12 20:19:53;;;;;;;;;0.00;0.00;;;;;;;;5067272;27;50157;-67
2023/04/12 20:22:21;;;;;;;;;1.00;0.00;;;;;;;;5091338;27;49949;-67
2023/04/12 20:24:46;;;;;;;;;2.00;0.75;;;;;;;;5081120;27;50188;-68
2023/04/12 20:27:15;;;;;;;;;0.00;0.00;;;;;;;;5075173;27;49786;-67
2023/04/12 20:29:41;;;;;;;;;0.75;0.75;;;;;;;;5076464;27;49960;-69
2023/04/12 20:32:06;;;;;;;;;0.00;0.00;;;;;;;;5085140;27;50123;-68
2023/04/12 20:34:31;;;;;;;;;1.50;0.00;;;;;;;;5090236;27;50156;-68
2023/04/12 20:36:58;;;;;;;;;0.50;0.50;;;;;;;;5086843;27;49873;-67
2023/04/12 20:39:24;;;;;;;;;0.50;0.50;;;;;;;;5088987;27;49762;-68
2023/04/12 20:41:50;;;;;;;;;1.00;0.00;;;;;;;;5089094;27;50351;-68
2023/04/12 20:44:16;;;;;;;;;0.00;0.00;;;;;;;;5070576;27;51457;-68
2023/04/12 20:46:42;;;;;;;;;1.00;1.00;;;;;;;;5087919;27;50035;-68
2023/04/12 20:49:07;;;;;;;;;0.50;0.25;;;;;;;;5089419;27;50109;-69
2023/04/12 20:51:32;;;;;;;;;1.00;0.00;;;;;;;;5087820;27;49863;-69
2023/04/12 20:53:57;;;;;;;;;1.25;0.50;;;;;;;;5088822;27;50572;-68
2023/04/12 20:56:25;;;;;;;;;0.00;0.00;;;;;;;;5088999;27;50070;-68
2023/04/12 20:58:51;;;;;;;;;2.00;0.00;;;;;;;;5087478;27;50180;-68